sensor_id;sensor_type;location;lat;lon;timestamp;temperature;humidity
11934;DHT22;6026;48.784;9.198;2023-04-01T00:01:02;8.50;99.90
11934;DHT22;6026;48.784;9.198;2023-04-01T00:03:29;8.50;99.90
11934;DHT22;6026;48.784;9.198;2023-04-01T00:05:56;8.50;99.90
11934;DHT22;6026;48.784;9.198;2023-04-01T00:08:21;8.40;99.90
11934;DHT22;6026;48.784;9.198;2023-04-01T00:10:47;8.50;99.90
11934;DHT22;6026;48.784;9.198;2023-04-01T00:13:13;8.50;99.90
11934;DHT22;6026;48.784;9.198;2023-04-01T00:15:38;8.50;99.90
11934;DHT22;6026;48.784;9.198;2023-04-01T00:18:04;8.60;99.90
11934;DHT22;6026;48.784;9.198;2023-04-01T00:20:30;8.60;99.90
11934;DHT22;6026;48.784;9.198;2023-04-01T00:22:56;8.60;99.90
11934;DHT22;6026;48.784;9.198;2023-04-01T00:25:22;8.60;99.90
11934;DHT22;6026;48.784;9.198;2023-04-01T00:27:48;8.60;99.90
11934;DHT22;6026;48.784;9.198;2023-04-01T00:30:14;8.60;99.90
11934;DHT22;6026;48.784;9.198;2023-04-01T00:32:40;8.60;99.90
11934;DHT22;6026;48.784;9.198;2023-04-01T00:35:06;8.60;99.90
11934;DHT22;6026;48.784;9.198;2023-04-01T00:37:35;8.60;99.90
11934;DHT22;6026;48.784;9.198;2023-04-01T00:40:02;8.50;99.90
11934;DHT22;6026;48.784;9.198;2023-04-01T00:42:29;8.50;99.90
11934;DHT22;6026;48.784;9.198;2023-04-01T00:44:55;8.60;99.90
11934;DHT22;6026;48.784;9.198;2023-04-01T00:47:22;8.60;99.90
11934;DHT22;6026;48.784;9.198;2023-04-01T00:49:50;8.60;99.90
11934;DHT22;6026;48.784;9.198;2023-04-01T00:52:20;8.50;99.90
11934;DHT22;6026;48.784;9.198;2023-04-01T00:54:50;8.60;99.90
11934;DHT22;6026;48.784;9.198;2023-04-01T00:57:33;8.50;99.90
11934;DHT22;6026;48.784;9.198;2023-04-01T01:00:04;8.50;99.90
11934;DHT22;6026;48.784;9.198;2023-04-01T01:02:31;8.50;99.90
11934;DHT22;6026;48.784;9.198;2023-04-01T01:04:57;8.50;99.90
11934;DHT22;6026;48.784;9.198;2023-04-01T01:08:03;8.50;99.90
11934;DHT22;6026;48.784;9.198;2023-04-01T01:10:34;8.50;99.90
11934;DHT22;6026;48.784;9.198;2023-04-01T01:13:05;8.50;99.90
11934;DHT22;6026;48.784;9.198;2023-04-01T01:15:41;8.40;99.90
11934;DHT22;6026;48.784;9.198;2023-04-01T01:18:41;8.40;99.90
11934;DHT22;6026;48.784;9.198;2023-04-01T01:35:31;8.40;99.90
11934;DHT22;6026;48.784;9.198;2023-04-01T01:38:02;8.40;99.90
11934;DHT22;6026;48.784;9.198;2023-04-01T01:40:29;8.40;99.90
11934;DHT22;6026;48.784;9.198;2023-04-01T01:42:59;8.50;99.90
11934;DHT22;6026;48.784;9.198;2023-04-01T01:45:27;8.40;99.90
11934;DHT22;6026;48.784;9.198;2023-04-01T01:47:55;8.40;99.90
11934;DHT22;6026;48.784;9.198;2023-04-01T01:50:22;8.40;99.90
11934;DHT22;6026;48.784;9.198;2023-04-01T01:52:49;8.40;99.90
11934;DHT22;6026;48.784;9.198;2023-04-01T01:55:31;8.30;99.90
11934;DHT22;6026;48.784;9.198;2023-04-01T01:58:00;8.20;99.90
11934;DHT22;6026;48.784;9.198;2023-04-01T02:00:28;8.20;99.90
11934;DHT22;6026;48.784;9.198;2023-04-01T02:02:54;8.10;99.90
11934;DHT22;6026;48.784;9.198;2023-04-01T02:05:23;8.10;99.90
11934;DHT22;6026;48.784;9.198;2023-04-01T02:08:00;8.10;99.90
11934;DHT22;6026;48.784;9.198;2023-04-01T02:10:28;8.10;99.90
11934;DHT22;6026;48.784;9.198;2023-04-01T02:13:00;8.10;99.90
11934;DHT22;6026;48.784;9.198;2023-04-01T02:15:27;8.10;99.90
11934;DHT22;6026;48.784;9.198;2023-04-01T02:17:55;8.10;99.90
11934;DHT22;6026;48.784;9.198;2023-04-01T02:20:23;8.10;99.90
11934;DHT22;6026;48.784;9.198;2023-04-01T02:22:54;8.10;99.90
11934;DHT22;6026;48.784;9.198;2023-04-01T02:25:25;8.10;99.90
11934;DHT22;6026;48.784;9.198;2023-04-01T02:27:51;8.10;99.90
11934;DHT22;6026;48.784;9.198;2023-04-01T02:30:18;8.10;99.90
11934;DHT22;6026;48.784;9.198;2023-04-01T02:32:44;8.10;99.90
11934;DHT22;6026;48.784;9.198;2023-04-01T02:37:40;8.00;99.90
11934;DHT22;6026;48.784;9.198;2023-04-01T02:40:10;8.00;99.90
11934;DHT22;6026;48.784;9.198;2023-04-01T02:42:36;8.00;99.90
11934;DHT22;6026;48.784;9.198;2023-04-01T02:45:02;8.00;99.90
11934;DHT22;6026;48.784;9.198;2023-04-01T02:47:28;8.00;99.90
11934;DHT22;6026;48.784;9.198;2023-04-01T02:49:54;8.00;99.90
11934;DHT22;6026;48.784;9.198;2023-04-01T02:52:26;7.90;99.90
11934;DHT22;6026;48.784;9.198;2023-04-01T02:54:53;7.90;99.90
11934;DHT22;6026;48.784;9.198;2023-04-01T02:57:18;7.90;99.90
11934;DHT22;6026;48.784;9.198;2023-04-01T02:59:44;7.80;99.90
11934;DHT22;6026;48.784;9.198;2023-04-01T03:02:09;7.90;99.90
11934;DHT22;6026;48.784;9.198;2023-04-01T03:04:35;7.80;99.90
11934;DHT22;6026;48.784;9.198;2023-04-01T03:07:01;7.80;99.90
11934;DHT22;6026;48.784;9.198;2023-04-01T03:09:27;7.80;99.90
11934;DHT22;6026;48.784;9.198;2023-04-01T03:11:54;7.80;99.90
11934;DHT22;6026;48.784;9.198;2023-04-01T03:14:19;7.80;99.90
11934;DHT22;6026;48.784;9.198;2023-04-01T03:16:45;7.80;99.90
11934;DHT22;6026;48.784;9.198;2023-04-01T03:19:11;7.80;99.90
11934;DHT22;6026;48.784;9.198;2023-04-01T03:21:36;7.80;99.90
11934;DHT22;6026;48.784;9.198;2023-04-01T03:24:02;7.80;99.90
11934;DHT22;6026;48.784;9.198;2023-04-01T03:26:28;7.70;99.90
11934;DHT22;6026;48.784;9.198;2023-04-01T03:28:54;7.70;99.90
11934;DHT22;6026;48.784;9.198;2023-04-01T03:31:20;7.70;99.90
11934;DHT22;6026;48.784;9.198;2023-04-01T03:33:46;7.70;99.90
11934;DHT22;6026;48.784;9.198;2023-04-01T03:36:12;7.70;99.90
11934;DHT22;6026;48.784;9.198;2023-04-01T03:38:39;7.70;99.90
11934;DHT22;6026;48.784;9.198;2023-04-01T03:41:05;7.70;99.90
11934;DHT22;6026;48.784;9.198;2023-04-01T03:43:32;7.70;99.90
11934;DHT22;6026;48.784;9.198;2023-04-01T03:45:57;7.70;99.90
11934;DHT22;6026;48.784;9.198;2023-04-01T03:48:24;7.80;99.90
11934;DHT22;6026;48.784;9.198;2023-04-01T03:50:50;7.80;99.90
11934;DHT22;6026;48.784;9.198;2023-04-01T03:53:16;7.90;99.90
11934;DHT22;6026;48.784;9.198;2023-04-01T03:55:42;7.80;99.90
11934;DHT22;6026;48.784;9.198;2023-04-01T03:58:08;7.90;99.90
11934;DHT22;6026;48.784;9.198;2023-04-01T04:00:34;7.90;99.90
11934;DHT22;6026;48.784;9.198;2023-04-01T04:03:00;7.80;99.90
11934;DHT22;6026;48.784;9.198;2023-04-01T04:05:26;7.80;99.90
11934;DHT22;6026;48.784;9.198;2023-04-01T04:07:52;7.80;99.90
11934;DHT22;6026;48.784;9.198;2023-04-01T04:10:18;7.80;99.90
11934;DHT22;6026;48.784;9.198;2023-04-01T04:12:44;7.80;99.90
11934;DHT22;6026;48.784;9.198;2023-04-01T04:15:10;7.80;99.90
11934;DHT22;6026;48.784;9.198;2023-04-01T04:17:36;7.80;99.90
11934;DHT22;6026;48.784;9.198;2023-04-01T04:20:02;7.70;99.90
11934;DHT22;6026;48.784;9.198;2023-04-01T04:22:28;7.70;99.90
11934;DHT22;6026;48.784;9.198;2023-04-01T04:24:53;7.70;99.90
11934;DHT22;6026;48.784;9.198;2023-04-01T04:27:19;7.70;99.90
11934;DHT22;6026;48.784;9.198;2023-04-01T04:29:45;7.70;99.90
11934;DHT22;6026;48.784;9.198;2023-04-01T04:32:10;7.70;99.90
11934;DHT22;6026;48.784;9.198;2023-04-01T04:34:36;7.70;99.90
11934;DHT22;6026;48.784;9.198;2023-04-01T04:37:02;7.70;99.90
11934;DHT22;6026;48.784;9.198;2023-04-01T04:39:28;7.60;99.90
11934;DHT22;6026;48.784;9.198;2023-04-01T04:41:53;7.50;99.90
11934;DHT22;6026;48.784;9.198;2023-04-01T04:44:19;7.50;99.90
11934;DHT22;6026;48.784;9.198;2023-04-01T04:46:45;7.50;99.90
11934;DHT22;6026;48.784;9.198;2023-04-01T04:49:10;7.50;99.90
11934;DHT22;6026;48.784;9.198;2023-04-01T04:51:36;7.50;99.90
11934;DHT22;6026;48.784;9.198;2023-04-01T04:54:05;7.40;99.90
11934;DHT22;6026;48.784;9.198;2023-04-01T04:56:31;7.40;99.90
11934;DHT22;6026;48.784;9.198;2023-04-01T04:58:58;7.40;99.90
11934;DHT22;6026;48.784;9.198;2023-04-01T05:01:23;7.40;99.90
11934;DHT22;6026;48.784;9.198;2023-04-01T05:03:49;7.40;99.90
11934;DHT22;6026;48.784;9.198;2023-04-01T05:06:17;7.40;99.90
11934;DHT22;6026;48.784;9.198;2023-04-01T05:08:43;7.40;99.90
11934;DHT22;6026;48.784;9.198;2023-04-01T05:11:18;7.40;99.90
11934;DHT22;6026;48.784;9.198;2023-04-01T05:13:45;7.40;99.90
11934;DHT22;6026;48.784;9.198;2023-04-01T05:16:13;7.40;99.90
11934;DHT22;6026;48.784;9.198;2023-04-01T05:18:39;7.40;99.90
11934;DHT22;6026;48.784;9.198;2023-04-01T05:21:06;7.50;99.90
11934;DHT22;6026;48.784;9.198;2023-04-01T05:23:32;7.50;99.90
11934;DHT22;6026;48.784;9.198;2023-04-01T05:25:58;7.60;99.90
11934;DHT22;6026;48.784;9.198;2023-04-01T05:28:24;7.60;99.90
11934;DHT22;6026;48.784;9.198;2023-04-01T05:30:49;7.60;99.90
11934;DHT22;6026;48.784;9.198;2023-04-01T05:33:16;7.70;99.90
11934;DHT22;6026;48.784;9.198;2023-04-01T05:35:41;7.70;99.90
11934;DHT22;6026;48.784;9.198;2023-04-01T05:38:07;7.70;99.90
11934;DHT22;6026;48.784;9.198;2023-04-01T05:40:33;7.80;99.90
11934;DHT22;6026;48.784;9.198;2023-04-01T05:42:59;7.80;99.90
11934;DHT22;6026;48.784;9.198;2023-04-01T05:45:25;7.90;99.90
11934;DHT22;6026;48.784;9.198;2023-04-01T05:47:51;7.90;99.90
11934;DHT22;6026;48.784;9.198;2023-04-01T05:50:17;8.00;99.90
11934;DHT22;6026;48.784;9.198;2023-04-01T05:52:43;8.00;99.90
11934;DHT22;6026;48.784;9.198;2023-04-01T05:55:09;8.10;99.90
11934;DHT22;6026;48.784;9.198;2023-04-01T05:57:35;8.20;99.90
11934;DHT22;6026;48.784;9.198;2023-04-01T06:00:01;8.20;99.90
11934;DHT22;6026;48.784;9.198;2023-04-01T06:02:26;8.30;99.90
11934;DHT22;6026;48.784;9.198;2023-04-01T06:05:20;8.30;99.90
11934;DHT22;6026;48.784;9.198;2023-04-01T06:07:46;8.40;99.90
11934;DHT22;6026;48.784;9.198;2023-04-01T06:10:15;8.50;99.90
11934;DHT22;6026;48.784;9.198;2023-04-01T06:17:57;8.60;99.90
11934;DHT22;6026;48.784;9.198;2023-04-01T06:20:37;8.70;99.90
11934;DHT22;6026;48.784;9.198;2023-04-01T06:31:26;9.00;99.90
11934;DHT22;6026;48.784;9.198;2023-04-01T06:34:21;9.00;99.90
11934;DHT22;6026;48.784;9.198;2023-04-01T06:39:30;9.10;99.90
11934;DHT22;6026;48.784;9.198;2023-04-01T06:47:29;9.10;99.90
11934;DHT22;6026;48.784;9.198;2023-04-01T06:55:38;9.10;99.90
11934;DHT22;6026;48.784;9.198;2023-04-01T06:58:21;9.10;99.90
11934;DHT22;6026;48.784;9.198;2023-04-01T07:00:53;9.10;99.90
11934;DHT22;6026;48.784;9.198;2023-04-01T07:03:40;9.10;99.90
11934;DHT22;6026;48.784;9.198;2023-04-01T07:06:14;9.20;99.90
11934;DHT22;6026;48.784;9.198;2023-04-01T07:08:43;9.20;99.90
11934;DHT22;6026;48.784;9.198;2023-04-01T07:11:16;9.20;99.90
11934;DHT22;6026;48.784;9.198;2023-04-01T07:13:49;9.30;99.90
11934;DHT22;6026;48.784;9.198;2023-04-01T07:16:26;9.30;99.90
11934;DHT22;6026;48.784;9.198;2023-04-01T07:19:18;9.30;99.90
11934;DHT22;6026;48.784;9.198;2023-04-01T07:21:52;9.30;99.90
11934;DHT22;6026;48.784;9.198;2023-04-01T07:24:32;9.20;99.90
11934;DHT22;6026;48.784;9.198;2023-04-01T07:26:58;9.30;99.90
11934;DHT22;6026;48.784;9.198;2023-04-01T07:29:26;9.30;99.90
11934;DHT22;6026;48.784;9.198;2023-04-01T07:32:14;9.20;99.90
11934;DHT22;6026;48.784;9.198;2023-04-01T07:37:43;9.20;99.90
11934;DHT22;6026;48.784;9.198;2023-04-01T07:40:21;9.30;99.90
11934;DHT22;6026;48.784;9.198;2023-04-01T07:45:54;9.30;99.90
11934;DHT22;6026;48.784;9.198;2023-04-01T07:57:04;9.40;99.90
11934;DHT22;6026;48.784;9.198;2023-04-01T08:10:28;9.70;99.90
11934;DHT22;6026;48.784;9.198;2023-04-01T08:21:38;9.80;99.90
11934;DHT22;6026;48.784;9.198;2023-04-01T08:24:34;9.80;99.90
11934;DHT22;6026;48.784;9.198;2023-04-01T08:27:06;9.80;99.90
11934;DHT22;6026;48.784;9.198;2023-04-01T08:30:15;9.80;99.90
11934;DHT22;6026;48.784;9.198;2023-04-01T08:32:44;9.80;99.90
11934;DHT22;6026;48.784;9.198;2023-04-01T08:35:37;9.80;99.90
11934;DHT22;6026;48.784;9.198;2023-04-01T08:58:51;8.70;99.90
11934;DHT22;6026;48.784;9.198;2023-04-01T09:07:12;8.50;99.90
11934;DHT22;6026;48.784;9.198;2023-04-01T09:15:16;8.40;99.90
11934;DHT22;6026;48.784;9.198;2023-04-01T09:32:40;8.80;99.90
11934;DHT22;6026;48.784;9.198;2023-04-01T10:11:15;9.20;99.90
11934;DHT22;6026;48.784;9.198;2023-04-01T10:27:48;9.40;99.90
11934;DHT22;6026;48.784;9.198;2023-04-01T10:36:43;9.80;99.90
11934;DHT22;6026;48.784;9.198;2023-04-01T11:05:33;10.00;99.90
11934;DHT22;6026;48.784;9.198;2023-04-01T11:19:06;10.00;99.90
11934;DHT22;6026;48.784;9.198;2023-04-01T11:30:19;10.90;99.90
11934;DHT22;6026;48.784;9.198;2023-04-01T11:32:53;11.10;99.90
11934;DHT22;6026;48.784;9.198;2023-04-01T11:35:28;11.30;99.90
11934;DHT22;6026;48.784;9.198;2023-04-01T11:38:19;11.40;99.90
11934;DHT22;6026;48.784;9.198;2023-04-01T11:47:05;12.00;99.90
11934;DHT22;6026;48.784;9.198;2023-04-01T11:55:25;12.20;99.90
11934;DHT22;6026;48.784;9.198;2023-04-01T12:03:42;12.00;99.90
11934;DHT22;6026;48.784;9.198;2023-04-01T12:06:40;11.80;99.90
11934;DHT22;6026;48.784;9.198;2023-04-01T12:12:46;11.30;99.90
11934;DHT22;6026;48.784;9.198;2023-04-01T12:19:58;11.00;99.90
11934;DHT22;6026;48.784;9.198;2023-04-01T12:28:39;10.80;99.90
11934;DHT22;6026;48.784;9.198;2023-04-01T12:42:17;10.90;99.90
11934;DHT22;6026;48.784;9.198;2023-04-01T12:51:01;11.20;99.90
11934;DHT22;6026;48.784;9.198;2023-04-01T12:59:21;11.70;99.90
11934;DHT22;6026;48.784;9.198;2023-04-01T13:08:10;11.90;99.90
11934;DHT22;6026;48.784;9.198;2023-04-01T13:11:12;11.80;99.90
11934;DHT22;6026;48.784;9.198;2023-04-01T13:16:19;11.60;99.90
11934;DHT22;6026;48.784;9.198;2023-04-01T13:44:09;11.50;99.90
11934;DHT22;6026;48.784;9.198;2023-04-01T13:46:50;11.50;99.90
11934;DHT22;6026;48.784;9.198;2023-04-01T14:03:00;11.60;99.90
11934;DHT22;6026;48.784;9.198;2023-04-01T14:09:02;11.70;99.90
11934;DHT22;6026;48.784;9.198;2023-04-01T14:14:43;11.70;99.90
11934;DHT22;6026;48.784;9.198;2023-04-01T14:17:31;11.60;99.90
11934;DHT22;6026;48.784;9.198;2023-04-01T14:23:40;11.40;99.90
11934;DHT22;6026;48.784;9.198;2023-04-01T14:31:42;11.30;99.90
11934;DHT22;6026;48.784;9.198;2023-04-01T14:37:15;11.30;99.90
11934;DHT22;6026;48.784;9.198;2023-04-01T14:40:33;11.20;99.90
11934;DHT22;6026;48.784;9.198;2023-04-01T14:51:28;10.70;99.90
11934;DHT22;6026;48.784;9.198;2023-04-01T14:54:35;10.70;99.90
11934;DHT22;6026;48.784;9.198;2023-04-01T14:57:15;10.60;99.90
11934;DHT22;6026;48.784;9.198;2023-04-01T15:02:38;10.80;99.90
11934;DHT22;6026;48.784;9.198;2023-04-01T15:11:47;10.80;99.90
11934;DHT22;6026;48.784;9.198;2023-04-01T15:14:00;10.90;99.90
11934;DHT22;6026;48.784;9.198;2023-04-01T15:19:41;10.90;99.90
11934;DHT22;6026;48.784;9.198;2023-04-01T15:27:44;10.90;99.90
11934;DHT22;6026;48.784;9.198;2023-04-01T15:30:49;10.90;99.90
11934;DHT22;6026;48.784;9.198;2023-04-01T15:33:26;11.00;99.90
11934;DHT22;6026;48.784;9.198;2023-04-01T15:36:29;11.00;99.90
11934;DHT22;6026;48.784;9.198;2023-04-01T15:42:16;10.90;99.90
11934;DHT22;6026;48.784;9.198;2023-04-01T15:55:58;10.80;99.90
11934;DHT22;6026;48.784;9.198;2023-04-01T16:12:31;10.80;99.90
11934;DHT22;6026;48.784;9.198;2023-04-01T16:20:22;10.80;99.90
11934;DHT22;6026;48.784;9.198;2023-04-01T16:23:02;10.80;99.90
11934;DHT22;6026;48.784;9.198;2023-04-01T16:25:57;10.80;99.90
11934;DHT22;6026;48.784;9.198;2023-04-01T16:29:32;10.70;99.90
11934;DHT22;6026;48.784;9.198;2023-04-01T16:34:30;10.70;99.90
11934;DHT22;6026;48.784;9.198;2023-04-01T16:37:11;10.60;99.90
11934;DHT22;6026;48.784;9.198;2023-04-01T16:42:20;10.60;99.90
11934;DHT22;6026;48.784;9.198;2023-04-01T16:44:59;10.50;99.90
11934;DHT22;6026;48.784;9.198;2023-04-01T16:47:36;10.50;99.90
11934;DHT22;6026;48.784;9.198;2023-04-01T16:50:21;10.60;99.90
11934;DHT22;6026;48.784;9.198;2023-04-01T16:55:57;10.50;99.90
11934;DHT22;6026;48.784;9.198;2023-04-01T16:58:36;10.50;99.90
11934;DHT22;6026;48.784;9.198;2023-04-01T17:01:20;10.50;99.90
11934;DHT22;6026;48.784;9.198;2023-04-01T17:03:52;10.50;99.90
11934;DHT22;6026;48.784;9.198;2023-04-01T17:16:52;10.60;99.90
11934;DHT22;6026;48.784;9.198;2023-04-01T17:23:01;10.50;99.90
11934;DHT22;6026;48.784;9.198;2023-04-01T17:27:51;10.50;99.90
11934;DHT22;6026;48.784;9.198;2023-04-01T17:35:40;10.50;99.90
11934;DHT22;6026;48.784;9.198;2023-04-01T17:58:44;10.40;99.90
11934;DHT22;6026;48.784;9.198;2023-04-01T18:04:17;10.30;99.90
11934;DHT22;6026;48.784;9.198;2023-04-01T18:22:58;9.80;99.90
11934;DHT22;6026;48.784;9.198;2023-04-01T18:25:47;9.60;99.90
11934;DHT22;6026;48.784;9.198;2023-04-01T18:28:41;9.50;99.90
11934;DHT22;6026;48.784;9.198;2023-04-01T18:31:23;9.50;99.90
11934;DHT22;6026;48.784;9.198;2023-04-01T18:34:10;9.40;99.90
11934;DHT22;6026;48.784;9.198;2023-04-01T18:36:55;9.40;99.90
11934;DHT22;6026;48.784;9.198;2023-04-01T18:39:38;9.30;99.90
11934;DHT22;6026;48.784;9.198;2023-04-01T18:42:38;9.30;99.90
11934;DHT22;6026;48.784;9.198;2023-04-01T18:45:23;9.30;99.90
11934;DHT22;6026;48.784;9.198;2023-04-01T18:48:08;9.20;99.90
11934;DHT22;6026;48.784;9.198;2023-04-01T18:50:48;9.20;99.90
11934;DHT22;6026;48.784;9.198;2023-04-01T18:53:35;9.20;99.90
11934;DHT22;6026;48.784;9.198;2023-04-01T18:56:12;9.10;99.90
11934;DHT22;6026;48.784;9.198;2023-04-01T19:01:39;8.90;99.90
11934;DHT22;6026;48.784;9.198;2023-04-01T19:04:30;8.90;99.90
11934;DHT22;6026;48.784;9.198;2023-04-01T19:06:59;8.90;99.90
11934;DHT22;6026;48.784;9.198;2023-04-01T19:09:45;8.90;99.90
11934;DHT22;6026;48.784;9.198;2023-04-01T19:18:14;8.70;99.90
11934;DHT22;6026;48.784;9.198;2023-04-01T19:20:53;8.70;99.90
11934;DHT22;6026;48.784;9.198;2023-04-01T19:32:15;8.60;99.90
11934;DHT22;6026;48.784;9.198;2023-04-01T19:37:27;8.50;99.90
11934;DHT22;6026;48.784;9.198;2023-04-01T19:46:02;8.50;99.90
11934;DHT22;6026;48.784;9.198;2023-04-01T19:48:43;8.50;99.90
11934;DHT22;6026;48.784;9.198;2023-04-01T19:54:20;8.50;99.90
11934;DHT22;6026;48.784;9.198;2023-04-01T20:04:53;8.40;99.90
11934;DHT22;6026;48.784;9.198;2023-04-01T20:07:40;8.40;99.90
11934;DHT22;6026;48.784;9.198;2023-04-01T20:15:04;8.40;99.90
11934;DHT22;6026;48.784;9.198;2023-04-01T20:17:45;8.50;99.90
11934;DHT22;6026;48.784;9.198;2023-04-01T20:28:02;8.50;99.90
11934;DHT22;6026;48.784;9.198;2023-04-01T20:37:00;8.60;99.90
11934;DHT22;6026;48.784;9.198;2023-04-01T20:39:52;8.70;99.90
11934;DHT22;6026;48.784;9.198;2023-04-01T20:42:42;8.70;99.90
11934;DHT22;6026;48.784;9.198;2023-04-01T20:47:45;8.70;99.90
11934;DHT22;6026;48.784;9.198;2023-04-01T20:53:16;8.80;99.90
11934;DHT22;6026;48.784;9.198;2023-04-01T21:01:15;8.70;99.90
11934;DHT22;6026;48.784;9.198;2023-04-01T21:09:31;8.70;99.90
11934;DHT22;6026;48.784;9.198;2023-04-01T21:15:19;8.70;99.90
11934;DHT22;6026;48.784;9.198;2023-04-01T21:21:54;8.70;99.90
11934;DHT22;6026;48.784;9.198;2023-04-01T21:29:28;8.70;99.90
11934;DHT22;6026;48.784;9.198;2023-04-01T21:32:12;8.70;99.90
11934;DHT22;6026;48.784;9.198;2023-04-01T21:42:59;8.70;99.90
11934;DHT22;6026;48.784;9.198;2023-04-01T21:48:24;8.70;99.90
11934;DHT22;6026;48.784;9.198;2023-04-01T21:53:50;8.70;99.90
11934;DHT22;6026;48.784;9.198;2023-04-01T22:01:35;8.70;99.90
11934;DHT22;6026;48.784;9.198;2023-04-01T22:07:07;8.70;99.90
11934;DHT22;6026;48.784;9.198;2023-04-01T22:23:06;8.50;99.90
11934;DHT22;6026;48.784;9.198;2023-04-01T22:25:41;8.50;99.90
11934;DHT22;6026;48.784;9.198;2023-04-01T22:28:21;8.50;99.90
11934;DHT22;6026;48.784;9.198;2023-04-01T22:30:58;8.50;99.90
11934;DHT22;6026;48.784;9.198;2023-04-01T22:33:52;8.50;99.90
11934;DHT22;6026;48.784;9.198;2023-04-01T22:37:50;8.50;99.90
11934;DHT22;6026;48.784;9.198;2023-04-01T22:50:18;8.50;99.90
11934;DHT22;6026;48.784;9.198;2023-04-01T22:52:47;8.60;99.90
11934;DHT22;6026;48.784;9.198;2023-04-01T22:55:20;8.50;99.90
11934;DHT22;6026;48.784;9.198;2023-04-01T22:58:00;8.50;99.90
11934;DHT22;6026;48.784;9.198;2023-04-01T23:00:48;8.50;99.90
11934;DHT22;6026;48.784;9.198;2023-04-01T23:03:31;8.50;99.90
11934;DHT22;6026;48.784;9.198;2023-04-01T23:05:59;8.50;99.90
11934;DHT22;6026;48.784;9.198;2023-04-01T23:19:44;8.40;99.90
11934;DHT22;6026;48.784;9.198;2023-04-01T23:22:36;8.40;99.90
11934;DHT22;6026;48.784;9.198;2023-04-01T23:27:51;8.40;99.90
11934;DHT22;6026;48.784;9.198;2023-04-01T23:33:11;8.40;99.90
11934;DHT22;6026;48.784;9.198;2023-04-01T23:38:35;8.40;99.90
11934;DHT22;6026;48.784;9.198;2023-04-01T23:41:02;8.40;99.90
11934;DHT22;6026;48.784;9.198;2023-04-01T23:43:37;8.40;99.90
11934;DHT22;6026;48.784;9.198;2023-04-01T23:46:06;8.40;99.90
11934;DHT22;6026;48.784;9.198;2023-04-01T23:48:41;8.30;99.90
11934;DHT22;6026;48.784;9.198;2023-04-01T23:51:23;8.30;99.90
11934;DHT22;6026;48.784;9.198;2023-04-01T23:54:18;8.30;99.90
11934;DHT22;6026;48.784;9.198;2023-04-01T23:56:46;8.30;99.90
11934;DHT22;6026;48.784;9.198;2023-04-01T23:59:24;8.20;99.90
